Bookmark and Share
Track history (hours):
 

F\v Desperado

Last reported at 2014-Apr-19 05:17 UTC. Time now 2014-Apr-19 22:11 UTC.
Position N 46°19' W 002°08'.

Type: Fishing. MMSI: 228312000.

NotesDate/timePositionNaut miles runAvg speedWind from/ knotsBaromVisibWave heightAir tempDewpointWater temp
2014-Apr-19 05:17N 46°19' W 002°08'6 7.9
2014-Apr-19 04:33N 46°22' W 002°01'8 8.0
2014-Apr-19 03:33N 46°26' W 001°51'4 4.4
2014-Apr-19 02:33N 46°30' W 001°47'3 2.9
2014-Apr-19 01:33N 46°27' W 001°49'8 8.2
2014-Apr-19 00:33N 46°23' W 001°59'25 1.4
2014-Apr-18 06:31N 46°10' W 002°30'8 8.5
2014-Apr-18 05:33N 46°15' W 002°20'8 8.3
2014-Apr-18 04:33N 46°19' W 002°09'8 7.9
2014-Apr-18 03:33N 46°23' W 001°60'8 8.0
2014-Apr-18 02:33N 46°27' W 001°50'3 3.4
2014-Apr-18 01:33N 46°30' W 001°47'4 3.9
2014-Apr-18 00:33N 46°27' W 001°50'8 7.9
2014-Apr-17 23:33N 46°22' W 001°60'33 2.1
2014-Apr-17 08:23N 46°09' W 002°43'3 1.1
2014-Apr-17 05:33N 46°11' W 002°46'  
2014-Apr-12 03:33N 46°20' W 002°07'8 8.2
2014-Apr-12 02:33N 46°24' W 001°57'8 8.1
2014-Apr-12 01:33N 46°29' W 001°47'1 1.2
2014-Apr-12 00:33N 46°30' W 001°47'5 4.5
2014-Apr-11 23:33N 46°27' W 001°52'  

Dump ship's entire track history

sailing weather and tide predictions

F\v Desperado — FVFQ — position and weather